sensor_id;sensor_type;location;lat;lon;timestamp;pressure;altitude;pressure_sealevel;temperature;humidity
58385;BME280;44185;47.844;8.966;2023-06-22T00:00:58;96129.97;;;18.79;100.00
58385;BME280;44185;47.844;8.966;2023-06-22T00:03:24;96123.81;;;18.79;100.00
58385;BME280;44185;47.844;8.966;2023-06-22T00:05:51;96116.78;;;18.78;100.00
58385;BME280;44185;47.844;8.966;2023-06-22T00:08:17;96116.66;;;18.86;100.00
58385;BME280;44185;47.844;8.966;2023-06-22T00:10:44;96116.19;;;18.83;100.00
58385;BME280;44185;47.844;8.966;2023-06-22T00:13:09;96114.81;;;18.87;100.00
58385;BME280;44185;47.844;8.966;2023-06-22T00:15:36;96118.97;;;18.89;100.00
58385;BME280;44185;47.844;8.966;2023-06-22T00:18:02;96125.72;;;18.85;100.00
58385;BME280;44185;47.844;8.966;2023-06-22T00:20:28;96128.13;;;18.80;100.00
58385;BME280;44185;47.844;8.966;2023-06-22T00:22:55;96129.81;;;18.81;100.00
58385;BME280;44185;47.844;8.966;2023-06-22T00:25:21;96115.28;;;18.75;100.00
58385;BME280;44185;47.844;8.966;2023-06-22T00:27:46;96110.41;;;18.79;100.00
58385;BME280;44185;47.844;8.966;2023-06-22T00:30:13;96109.75;;;18.77;100.00
58385;BME280;44185;47.844;8.966;2023-06-22T00:32:38;96104.94;;;18.72;100.00
58385;BME280;44185;47.844;8.966;2023-06-22T00:35:05;96104.31;;;18.70;100.00
58385;BME280;44185;47.844;8.966;2023-06-22T00:37:31;96108.84;;;18.70;100.00
58385;BME280;44185;47.844;8.966;2023-06-22T00:39:57;96110.94;;;18.74;100.00
58385;BME280;44185;47.844;8.966;2023-06-22T00:42:23;96103.09;;;18.73;100.00
58385;BME280;44185;47.844;8.966;2023-06-22T00:44:48;96101.44;;;18.72;100.00
58385;BME280;44185;47.844;8.966;2023-06-22T00:47:16;96106.78;;;18.72;100.00
58385;BME280;44185;47.844;8.966;2023-06-22T00:49:42;96102.91;;;18.74;100.00
58385;BME280;44185;47.844;8.966;2023-06-22T00:52:08;96103.66;;;18.68;100.00
58385;BME280;44185;47.844;8.966;2023-06-22T00:54:35;96109.75;;;18.77;100.00
58385;BME280;44185;47.844;8.966;2023-06-22T00:57:02;96108.19;;;18.67;100.00
58385;BME280;44185;47.844;8.966;2023-06-22T00:59:28;96102.91;;;18.74;100.00
58385;BME280;44185;47.844;8.966;2023-06-22T01:01:54;96101.06;;;18.75;100.00
58385;BME280;44185;47.844;8.966;2023-06-22T01:04:20;96104.09;;;18.72;100.00
58385;BME280;44185;47.844;8.966;2023-06-22T01:06:53;96096.72;;;18.74;100.00
58385;BME280;44185;47.844;8.966;2023-06-22T01:09:23;96107.81;;;18.71;100.00
58385;BME280;44185;47.844;8.966;2023-06-22T01:11:55;96101.38;;;18.65;100.00
58385;BME280;44185;47.844;8.966;2023-06-22T01:14:29;96112.19;;;18.56;100.00
58385;BME280;44185;47.844;8.966;2023-06-22T01:16:57;96108.75;;;18.63;100.00
58385;BME280;44185;47.844;8.966;2023-06-22T01:19:35;96108.56;;;18.64;100.00
58385;BME280;44185;47.844;8.966;2023-06-22T01:22:03;96112.25;;;18.63;100.00
58385;BME280;44185;47.844;8.966;2023-06-22T01:24:33;96104.97;;;18.57;100.00
58385;BME280;44185;47.844;8.966;2023-06-22T01:27:11;96099.50;;;18.50;100.00
58385;BME280;44185;47.844;8.966;2023-06-22T01:29:41;96108.38;;;18.51;100.00
58385;BME280;44185;47.844;8.966;2023-06-22T01:32:08;96106.25;;;18.61;100.00
58385;BME280;44185;47.844;8.966;2023-06-22T01:34:36;96115.88;;;18.55;100.00
58385;BME280;44185;47.844;8.966;2023-06-22T01:37:03;96116.97;;;18.61;100.00
58385;BME280;44185;47.844;8.966;2023-06-22T01:39:29;96120.41;;;18.55;100.00
58385;BME280;44185;47.844;8.966;2023-06-22T01:41:55;96125.94;;;18.53;100.00
58385;BME280;44185;47.844;8.966;2023-06-22T01:44:22;96125.09;;;18.53;100.00
58385;BME280;44185;47.844;8.966;2023-06-22T01:46:52;96118.53;;;18.55;100.00
58385;BME280;44185;47.844;8.966;2023-06-22T01:49:18;96121.41;;;18.54;100.00
58385;BME280;44185;47.844;8.966;2023-06-22T01:51:43;96123.47;;;18.52;100.00
58385;BME280;44185;47.844;8.966;2023-06-22T01:54:08;96132.97;;;18.54;100.00
58385;BME280;44185;47.844;8.966;2023-06-22T01:56:34;96135.38;;;18.49;100.00
58385;BME280;44185;47.844;8.966;2023-06-22T01:59:05;96130.19;;;18.48;100.00
58385;BME280;44185;47.844;8.966;2023-06-22T02:01:41;96143.97;;;18.44;100.00
58385;BME280;44185;47.844;8.966;2023-06-22T02:04:13;96141.19;;;18.38;100.00
58385;BME280;44185;47.844;8.966;2023-06-22T02:06:42;96146.38;;;18.39;100.00
58385;BME280;44185;47.844;8.966;2023-06-22T02:09:09;96149.94;;;18.31;100.00
58385;BME280;44185;47.844;8.966;2023-06-22T02:11:41;96148.22;;;18.39;100.00
58385;BME280;44185;47.844;8.966;2023-06-22T02:14:07;96140.91;;;18.32;100.00
58385;BME280;44185;47.844;8.966;2023-06-22T02:16:33;96140.28;;;18.30;100.00
58385;BME280;44185;47.844;8.966;2023-06-22T02:19:00;96146.00;;;18.27;100.00
58385;BME280;44185;47.844;8.966;2023-06-22T02:21:28;96147.00;;;18.26;100.00
58385;BME280;44185;47.844;8.966;2023-06-22T02:23:53;96148.59;;;18.20;100.00
58385;BME280;44185;47.844;8.966;2023-06-22T02:26:19;96146.88;;;18.19;100.00
58385;BME280;44185;47.844;8.966;2023-06-22T02:28:44;96138.31;;;18.24;100.00
58385;BME280;44185;47.844;8.966;2023-06-22T02:31:10;96127.50;;;18.17;100.00
58385;BME280;44185;47.844;8.966;2023-06-22T02:33:35;96125.66;;;18.18;100.00
58385;BME280;44185;47.844;8.966;2023-06-22T02:36:01;96140.31;;;18.07;100.00
58385;BME280;44185;47.844;8.966;2023-06-22T02:38:27;96137.88;;;17.97;100.00
58385;BME280;44185;47.844;8.966;2023-06-22T02:40:53;96139.66;;;18.05;100.00
58385;BME280;44185;47.844;8.966;2023-06-22T02:43:18;96152.38;;;18.03;100.00
58385;BME280;44185;47.844;8.966;2023-06-22T02:45:44;96151.19;;;18.05;100.00
58385;BME280;44185;47.844;8.966;2023-06-22T02:48:09;96149.19;;;18.07;100.00
58385;BME280;44185;47.844;8.966;2023-06-22T02:50:35;96145.84;;;18.05;100.00
58385;BME280;44185;47.844;8.966;2023-06-22T02:53:00;96144.81;;;17.91;100.00
58385;BME280;44185;47.844;8.966;2023-06-22T02:55:27;96143.56;;;17.78;100.00
58385;BME280;44185;47.844;8.966;2023-06-22T02:57:53;96139.66;;;17.66;100.00
58385;BME280;44185;47.844;8.966;2023-06-22T03:00:19;96139.66;;;17.66;100.00
58385;BME280;44185;47.844;8.966;2023-06-22T03:02:45;96137.34;;;17.63;100.00
58385;BME280;44185;47.844;8.966;2023-06-22T03:05:11;96133.09;;;17.53;100.00
58385;BME280;44185;47.844;8.966;2023-06-22T03:07:36;96121.19;;;17.56;100.00
58385;BME280;44185;47.844;8.966;2023-06-22T03:10:02;96133.38;;;17.59;100.00
58385;BME280;44185;47.844;8.966;2023-06-22T03:12:29;96131.59;;;17.51;100.00
58385;BME280;44185;47.844;8.966;2023-06-22T03:14:54;96123.44;;;17.44;100.00
58385;BME280;44185;47.844;8.966;2023-06-22T03:17:20;96129.53;;;17.38;100.00
58385;BME280;44185;47.844;8.966;2023-06-22T03:19:45;96120.72;;;17.29;100.00
58385;BME280;44185;47.844;8.966;2023-06-22T03:22:10;96112.22;;;17.25;100.00
58385;BME280;44185;47.844;8.966;2023-06-22T03:24:36;96126.41;;;17.26;100.00
58385;BME280;44185;47.844;8.966;2023-06-22T03:27:01;96133.63;;;17.25;100.00
58385;BME280;44185;47.844;8.966;2023-06-22T03:29:28;96141.41;;;17.35;100.00
58385;BME280;44185;47.844;8.966;2023-06-22T03:31:54;96142.25;;;17.36;100.00
58385;BME280;44185;47.844;8.966;2023-06-22T03:34:19;96146.41;;;17.38;100.00
58385;BME280;44185;47.844;8.966;2023-06-22T03:36:44;96150.06;;;17.37;100.00
58385;BME280;44185;47.844;8.966;2023-06-22T03:39:10;96145.06;;;17.34;100.00
58385;BME280;44185;47.844;8.966;2023-06-22T03:41:35;96140.75;;;17.33;100.00
58385;BME280;44185;47.844;8.966;2023-06-22T03:44:01;96143.28;;;17.26;100.00
58385;BME280;44185;47.844;8.966;2023-06-22T03:46:27;96148.53;;;17.19;100.00
58385;BME280;44185;47.844;8.966;2023-06-22T03:48:53;96138.13;;;17.25;100.00
58385;BME280;44185;47.844;8.966;2023-06-22T03:51:18;96134.22;;;17.36;100.00
58385;BME280;44185;47.844;8.966;2023-06-22T03:53:44;96129.09;;;17.26;100.00
58385;BME280;44185;47.844;8.966;2023-06-22T03:56:09;96132.25;;;17.29;100.00
58385;BME280;44185;47.844;8.966;2023-06-22T03:58:35;96128.69;;;17.37;100.00
58385;BME280;44185;47.844;8.966;2023-06-22T04:01:00;96119.47;;;17.40;100.00
58385;BME280;44185;47.844;8.966;2023-06-22T04:03:27;96117.16;;;17.37;100.00
58385;BME280;44185;47.844;8.966;2023-06-22T04:05:53;96118.47;;;17.41;100.00
58385;BME280;44185;47.844;8.966;2023-06-22T04:08:18;96118.94;;;17.44;100.00
58385;BME280;44185;47.844;8.966;2023-06-22T04:10:43;96124.41;;;17.51;100.00
58385;BME280;44185;47.844;8.966;2023-06-22T04:13:09;96126.06;;;17.52;100.00
58385;BME280;44185;47.844;8.966;2023-06-22T04:15:34;96124.31;;;17.60;100.00
58385;BME280;44185;47.844;8.966;2023-06-22T04:18:00;96127.13;;;17.43;100.00
58385;BME280;44185;47.844;8.966;2023-06-22T04:20:27;96137.94;;;17.50;100.00
58385;BME280;44185;47.844;8.966;2023-06-22T04:22:53;96124.69;;;17.56;100.00
58385;BME280;44185;47.844;8.966;2023-06-22T04:25:18;96113.25;;;17.63;100.00
58385;BME280;44185;47.844;8.966;2023-06-22T04:27:43;96107.47;;;17.74;100.00
58385;BME280;44185;47.844;8.966;2023-06-22T04:30:09;96110.50;;;17.71;100.00
58385;BME280;44185;47.844;8.966;2023-06-22T04:32:35;96119.66;;;17.77;100.00
58385;BME280;44185;47.844;8.966;2023-06-22T04:35:00;96105.94;;;17.80;100.00
58385;BME280;44185;47.844;8.966;2023-06-22T04:37:27;96101.88;;;17.99;100.00
58385;BME280;44185;47.844;8.966;2023-06-22T04:39:53;96109.66;;;18.09;100.00
58385;BME280;44185;47.844;8.966;2023-06-22T04:42:18;96113.91;;;18.19;100.00
58385;BME280;44185;47.844;8.966;2023-06-22T04:44:44;96110.97;;;18.29;100.00
58385;BME280;44185;47.844;8.966;2023-06-22T04:47:09;96113.28;;;18.32;100.00
58385;BME280;44185;47.844;8.966;2023-06-22T04:49:35;96123.75;;;18.42;100.00
58385;BME280;44185;47.844;8.966;2023-06-22T04:52:03;96118.94;;;18.52;100.00
58385;BME280;44185;47.844;8.966;2023-06-22T04:54:31;96127.78;;;18.53;100.00
58385;BME280;44185;47.844;8.966;2023-06-22T04:56:56;96134.88;;;18.61;100.00
58385;BME280;44185;47.844;8.966;2023-06-22T04:59:21;96116.03;;;18.69;100.00
58385;BME280;44185;47.844;8.966;2023-06-22T05:01:47;96119.66;;;18.61;100.00
58385;BME280;44185;47.844;8.966;2023-06-22T05:04:12;96133.53;;;18.65;100.00
58385;BME280;44185;47.844;8.966;2023-06-22T05:06:38;96126.28;;;18.81;100.00
58385;BME280;44185;47.844;8.966;2023-06-22T05:09:03;96098.84;;;18.78;100.00
58385;BME280;44185;47.844;8.966;2023-06-22T05:11:30;96110.03;;;18.67;100.00
58385;BME280;44185;47.844;8.966;2023-06-22T05:13:56;96126.19;;;18.74;100.00
58385;BME280;44185;47.844;8.966;2023-06-22T05:16:22;96124.13;;;18.91;100.00
58385;BME280;44185;47.844;8.966;2023-06-22T05:18:47;96106.47;;;18.97;100.00
58385;BME280;44185;47.844;8.966;2023-06-22T05:21:13;96112.22;;;18.94;100.00
58385;BME280;44185;47.844;8.966;2023-06-22T05:23:38;96110.09;;;19.11;100.00
58385;BME280;44185;47.844;8.966;2023-06-22T05:26:04;96101.97;;;19.19;100.00
58385;BME280;44185;47.844;8.966;2023-06-22T05:28:30;96106.88;;;19.16;100.00
58385;BME280;44185;47.844;8.966;2023-06-22T05:30:56;96111.75;;;19.27;100.00
58385;BME280;44185;47.844;8.966;2023-06-22T05:33:21;96112.25;;;19.38;100.00
58385;BME280;44185;47.844;8.966;2023-06-22T05:35:47;96096.81;;;19.40;100.00
58385;BME280;44185;47.844;8.966;2023-06-22T05:38:12;96104.28;;;19.44;100.00
58385;BME280;44185;47.844;8.966;2023-06-22T05:40:38;96113.09;;;19.60;100.00
58385;BME280;44185;47.844;8.966;2023-06-22T05:43:03;96106.56;;;19.70;100.00
58385;BME280;44185;47.844;8.966;2023-06-22T05:45:30;96104.38;;;19.80;100.00
58385;BME280;44185;47.844;8.966;2023-06-22T05:47:55;96105.91;;;19.89;100.00
58385;BME280;44185;47.844;8.966;2023-06-22T05:50:21;96117.84;;;19.87;100.00
58385;BME280;44185;47.844;8.966;2023-06-22T05:52:46;96120.56;;;20.16;100.00
58385;BME280;44185;47.844;8.966;2023-06-22T05:55:11;96101.22;;;20.27;100.00
58385;BME280;44185;47.844;8.966;2023-06-22T05:57:38;96095.56;;;20.15;100.00
58385;BME280;44185;47.844;8.966;2023-06-22T06:00:04;96106.50;;;20.14;100.00
58385;BME280;44185;47.844;8.966;2023-06-22T06:02:31;96118.16;;;20.28;100.00
58385;BME280;44185;47.844;8.966;2023-06-22T06:04:56;96114.38;;;20.58;100.00
58385;BME280;44185;47.844;8.966;2023-06-22T06:07:22;96107.16;;;20.58;100.00
58385;BME280;44185;47.844;8.966;2023-06-22T06:09:47;96101.38;;;20.61;100.00
58385;BME280;44185;47.844;8.966;2023-06-22T06:12:12;96105.09;;;20.60;100.00
58385;BME280;44185;47.844;8.966;2023-06-22T06:14:38;96109.47;;;20.68;100.00
58385;BME280;44185;47.844;8.966;2023-06-22T06:17:03;96106.22;;;20.80;100.00
58385;BME280;44185;47.844;8.966;2023-06-22T06:19:30;96107.50;;;20.97;100.00
58385;BME280;44185;47.844;8.966;2023-06-22T06:21:55;96104.88;;;21.04;100.00
58385;BME280;44185;47.844;8.966;2023-06-22T06:24:21;96108.03;;;21.28;100.00
58385;BME280;44185;47.844;8.966;2023-06-22T06:26:46;96115.13;;;21.70;100.00
58385;BME280;44185;47.844;8.966;2023-06-22T06:29:12;96116.56;;;21.59;100.00
58385;BME280;44185;47.844;8.966;2023-06-22T06:31:38;96109.09;;;21.82;100.00
58385;BME280;44185;47.844;8.966;2023-06-22T06:34:03;96109.31;;;21.60;100.00
58385;BME280;44185;47.844;8.966;2023-06-22T06:36:30;96109.75;;;21.91;100.00
58385;BME280;44185;47.844;8.966;2023-06-22T06:38:55;96111.19;;;22.20;100.00
58385;BME280;44185;47.844;8.966;2023-06-22T06:41:21;96108.22;;;22.49;100.00
58385;BME280;44185;47.844;8.966;2023-06-22T06:43:46;96110.44;;;22.66;100.00
58385;BME280;44185;47.844;8.966;2023-06-22T06:46:11;96122.34;;;23.04;100.00
58385;BME280;44185;47.844;8.966;2023-06-22T06:48:38;96123.69;;;23.20;98.25
58385;BME280;44185;47.844;8.966;2023-06-22T06:51:03;96126.63;;;23.19;97.89
58385;BME280;44185;47.844;8.966;2023-06-22T06:53:30;96129.34;;;23.19;97.63
58385;BME280;44185;47.844;8.966;2023-06-22T06:55:55;96126.41;;;23.20;96.37
58385;BME280;44185;47.844;8.966;2023-06-22T06:58:21;96127.00;;;23.22;98.28
58385;BME280;44185;47.844;8.966;2023-06-22T07:00:46;96132.47;;;23.48;98.04
58385;BME280;44185;47.844;8.966;2023-06-22T07:03:12;96122.06;;;23.59;94.60
58385;BME280;44185;47.844;8.966;2023-06-22T07:05:37;96121.50;;;23.43;97.23
58385;BME280;44185;47.844;8.966;2023-06-22T07:08:03;96127.91;;;23.49;95.98
58385;BME280;44185;47.844;8.966;2023-06-22T07:10:30;96123.50;;;23.61;96.88
58385;BME280;44185;47.844;8.966;2023-06-22T07:12:55;96124.16;;;23.82;93.91
58385;BME280;44185;47.844;8.966;2023-06-22T07:15:21;96112.41;;;23.70;94.38
58385;BME280;44185;47.844;8.966;2023-06-22T07:17:46;96120.81;;;23.54;94.31
58385;BME280;44185;47.844;8.966;2023-06-22T07:20:12;96117.59;;;23.71;94.82
58385;BME280;44185;47.844;8.966;2023-06-22T07:22:38;96116.25;;;23.55;94.80
58385;BME280;44185;47.844;8.966;2023-06-22T07:25:04;96109.66;;;23.51;94.43
58385;BME280;44185;47.844;8.966;2023-06-22T07:27:31;96108.81;;;23.50;96.11
58385;BME280;44185;47.844;8.966;2023-06-22T07:29:57;96104.78;;;23.60;95.81
58385;BME280;44185;47.844;8.966;2023-06-22T07:32:23;96100.84;;;23.88;96.59
58385;BME280;44185;47.844;8.966;2023-06-22T07:34:48;96089.56;;;24.17;94.32
58385;BME280;44185;47.844;8.966;2023-06-22T07:37:13;96093.09;;;24.17;95.27
58385;BME280;44185;47.844;8.966;2023-06-22T07:39:39;96097.72;;;24.10;92.45
58385;BME280;44185;47.844;8.966;2023-06-22T07:42:05;96101.56;;;24.47;92.55
58385;BME280;44185;47.844;8.966;2023-06-22T07:44:31;96092.06;;;24.56;92.07
58385;BME280;44185;47.844;8.966;2023-06-22T07:46:57;96108.97;;;24.70;90.25
58385;BME280;44185;47.844;8.966;2023-06-22T07:49:23;96100.50;;;25.16;89.43
58385;BME280;44185;47.844;8.966;2023-06-22T07:51:48;96099.47;;;25.17;86.10
58385;BME280;44185;47.844;8.966;2023-06-22T07:54:13;96114.25;;;25.03;88.12
58385;BME280;44185;47.844;8.966;2023-06-22T07:56:39;96117.53;;;25.05;85.74
58385;BME280;44185;47.844;8.966;2023-06-22T07:59:04;96150.16;;;25.10;89.68
58385;BME280;44185;47.844;8.966;2023-06-22T08:01:31;96178.78;;;25.37;87.37
58385;BME280;44185;47.844;8.966;2023-06-22T08:03:56;96193.09;;;25.06;87.56
58385;BME280;44185;47.844;8.966;2023-06-22T08:06:23;96233.28;;;24.84;91.97
58385;BME280;44185;47.844;8.966;2023-06-22T08:08:48;96251.50;;;24.51;91.60
58385;BME280;44185;47.844;8.966;2023-06-22T08:11:13;96239.16;;;24.36;93.42
58385;BME280;44185;47.844;8.966;2023-06-22T08:13:39;96215.28;;;24.52;90.84
58385;BME280;44185;47.844;8.966;2023-06-22T08:16:05;96208.63;;;24.73;92.36
58385;BME280;44185;47.844;8.966;2023-06-22T08:18:31;96202.69;;;24.83;91.65
58385;BME280;44185;47.844;8.966;2023-06-22T08:20:57;96206.88;;;24.79;89.37
58385;BME280;44185;47.844;8.966;2023-06-22T08:23:23;96206.69;;;24.99;90.88
58385;BME280;44185;47.844;8.966;2023-06-22T08:25:48;96219.38;;;24.99;92.39
58385;BME280;44185;47.844;8.966;2023-06-22T08:28:13;96222.78;;;24.94;87.96
58385;BME280;44185;47.844;8.966;2023-06-22T08:30:39;96212.63;;;25.27;87.89
58385;BME280;44185;47.844;8.966;2023-06-22T08:33:04;96212.56;;;25.34;86.44
58385;BME280;44185;47.844;8.966;2023-06-22T08:35:31;96210.72;;;25.77;86.72
58385;BME280;44185;47.844;8.966;2023-06-22T08:37:56;96208.53;;;25.98;86.11
58385;BME280;44185;47.844;8.966;2023-06-22T08:40:22;96226.25;;;26.13;84.23
58385;BME280;44185;47.844;8.966;2023-06-22T08:42:48;96221.72;;;26.50;85.32
58385;BME280;44185;47.844;8.966;2023-06-22T08:45:14;96211.34;;;26.47;80.35
58385;BME280;44185;47.844;8.966;2023-06-22T08:47:41;96196.97;;;26.58;79.87
58385;BME280;44185;47.844;8.966;2023-06-22T08:50:07;96200.38;;;26.53;81.15
58385;BME280;44185;47.844;8.966;2023-06-22T08:52:34;96195.78;;;26.54;81.80
58385;BME280;44185;47.844;8.966;2023-06-22T08:55:00;96189.28;;;26.55;80.10
58385;BME280;44185;47.844;8.966;2023-06-22T08:57:25;96175.84;;;26.60;81.10
58385;BME280;44185;47.844;8.966;2023-06-22T08:59:51;96160.63;;;26.47;81.08
58385;BME280;44185;47.844;8.966;2023-06-22T09:02:16;96162.31;;;25.93;82.54
58385;BME280;44185;47.844;8.966;2023-06-22T09:04:41;96163.44;;;26.28;82.38
58385;BME280;44185;47.844;8.966;2023-06-22T09:07:08;96154.69;;;26.38;79.30
58385;BME280;44185;47.844;8.966;2023-06-22T09:09:34;96159.44;;;26.43;80.01
58385;BME280;44185;47.844;8.966;2023-06-22T09:12:00;96164.38;;;26.82;78.84
58385;BME280;44185;47.844;8.966;2023-06-22T09:14:25;96157.19;;;26.16;83.70
58385;BME280;44185;47.844;8.966;2023-06-22T09:16:51;96141.75;;;26.40;80.95
58385;BME280;44185;47.844;8.966;2023-06-22T09:19:16;96134.88;;;26.74;79.34
58385;BME280;44185;47.844;8.966;2023-06-22T09:21:42;96130.19;;;26.09;83.17
58385;BME280;44185;47.844;8.966;2023-06-22T09:24:08;96120.75;;;25.87;84.44
58385;BME280;44185;47.844;8.966;2023-06-22T09:26:34;96135.59;;;26.33;84.97
58385;BME280;44185;47.844;8.966;2023-06-22T09:29:00;96141.13;;;26.62;82.71
58385;BME280;44185;47.844;8.966;2023-06-22T09:31:25;96136.19;;;25.99;82.28
58385;BME280;44185;47.844;8.966;2023-06-22T09:33:51;96134.41;;;25.93;83.51
58385;BME280;44185;47.844;8.966;2023-06-22T09:36:17;96134.25;;;25.75;85.52
58385;BME280;44185;47.844;8.966;2023-06-22T09:38:42;96135.47;;;26.28;84.38
58385;BME280;44185;47.844;8.966;2023-06-22T09:41:08;96121.22;;;25.96;84.81
58385;BME280;44185;47.844;8.966;2023-06-22T09:43:35;96112.22;;;25.72;87.57
58385;BME280;44185;47.844;8.966;2023-06-22T09:46:00;96111.69;;;25.08;87.49
58385;BME280;44185;47.844;8.966;2023-06-22T09:48:25;96107.81;;;24.97;91.19
58385;BME280;44185;47.844;8.966;2023-06-22T09:50:51;96115.53;;;25.43;89.73
58385;BME280;44185;47.844;8.966;2023-06-22T09:53:16;96112.22;;;25.29;89.79
58385;BME280;44185;47.844;8.966;2023-06-22T09:55:42;96117.25;;;25.25;91.07
58385;BME280;44185;47.844;8.966;2023-06-22T09:58:08;96128.19;;;25.18;89.48
58385;BME280;44185;47.844;8.966;2023-06-22T10:00:34;96127.06;;;25.38;89.13
58385;BME280;44185;47.844;8.966;2023-06-22T10:03:00;96129.47;;;25.47;86.95
58385;BME280;44185;47.844;8.966;2023-06-22T10:05:25;96117.03;;;25.70;86.78
58385;BME280;44185;47.844;8.966;2023-06-22T10:07:51;96107.00;;;25.70;87.14
58385;BME280;44185;47.844;8.966;2023-06-22T10:10:16;96111.19;;;25.85;85.44
58385;BME280;44185;47.844;8.966;2023-06-22T10:12:46;96109.72;;;25.70;86.00
58385;BME280;44185;47.844;8.966;2023-06-22T10:15:12;96105.19;;;26.07;83.02
58385;BME280;44185;47.844;8.966;2023-06-22T10:17:39;96106.50;;;26.16;84.34
58385;BME280;44185;47.844;8.966;2023-06-22T10:20:06;96109.41;;;26.63;83.70
58385;BME280;44185;47.844;8.966;2023-06-22T10:22:32;96111.06;;;26.64;79.99
58385;BME280;44185;47.844;8.966;2023-06-22T10:24:57;96110.25;;;26.63;80.23
58385;BME280;44185;47.844;8.966;2023-06-22T10:27:23;96106.25;;;26.95;81.76
58385;BME280;44185;47.844;8.966;2023-06-22T10:29:48;96108.63;;;26.92;79.32
58385;BME280;44185;47.844;8.966;2023-06-22T10:32:13;96095.03;;;26.38;77.35
58385;BME280;44185;47.844;8.966;2023-06-22T10:34:40;96092.75;;;26.71;76.33
58385;BME280;44185;47.844;8.966;2023-06-22T10:37:06;96087.63;;;26.87;81.65
58385;BME280;44185;47.844;8.966;2023-06-22T10:39:31;96087.81;;;27.09;79.40
58385;BME280;44185;47.844;8.966;2023-06-22T10:41:56;96075.63;;;27.12;76.95
58385;BME280;44185;47.844;8.966;2023-06-22T10:44:23;96071.41;;;27.04;75.63
58385;BME280;44185;47.844;8.966;2023-06-22T10:46:48;96074.41;;;26.91;74.74
58385;BME280;44185;47.844;8.966;2023-06-22T10:49:13;96087.28;;;27.25;74.32
58385;BME280;44185;47.844;8.966;2023-06-22T10:51:40;96085.06;;;26.80;74.45
58385;BME280;44185;47.844;8.966;2023-06-22T10:54:06;96080.91;;;26.48;76.58
58385;BME280;44185;47.844;8.966;2023-06-22T10:56:31;96082.53;;;26.61;76.62
58385;BME280;44185;47.844;8.966;2023-06-22T10:58:56;96083.34;;;26.62;78.50
58385;BME280;44185;47.844;8.966;2023-06-22T11:01:22;96079.16;;;26.83;79.08
58385;BME280;44185;47.844;8.966;2023-06-22T11:03:47;96083.88;;;26.76;76.71
58385;BME280;44185;47.844;8.966;2023-06-22T11:06:13;96084.31;;;26.56;76.28
58385;BME280;44185;47.844;8.966;2023-06-22T11:08:43;96072.72;;;26.60;80.08
58385;BME280;44185;47.844;8.966;2023-06-22T11:11:09;96070.25;;;26.59;79.48
58385;BME280;44185;47.844;8.966;2023-06-22T11:13:34;96070.28;;;26.47;83.01
58385;BME280;44185;47.844;8.966;2023-06-22T11:16:00;96080.13;;;26.77;79.10
58385;BME280;44185;47.844;8.966;2023-06-22T11:18:25;96089.59;;;27.04;78.38
58385;BME280;44185;47.844;8.966;2023-06-22T11:20:50;96087.16;;;26.90;80.58
58385;BME280;44185;47.844;8.966;2023-06-22T11:23:16;96087.22;;;26.66;77.24
58385;BME280;44185;47.844;8.966;2023-06-22T11:25:43;96091.44;;;26.74;83.48
58385;BME280;44185;47.844;8.966;2023-06-22T11:28:09;96092.09;;;26.52;80.63
58385;BME280;44185;47.844;8.966;2023-06-22T11:30:34;96082.06;;;26.64;79.81
58385;BME280;44185;47.844;8.966;2023-06-22T11:33:00;96095.41;;;26.54;81.64
58385;BME280;44185;47.844;8.966;2023-06-22T11:35:25;96089.31;;;26.76;82.73
58385;BME280;44185;47.844;8.966;2023-06-22T11:37:50;96092.00;;;26.88;82.07
58385;BME280;44185;47.844;8.966;2023-06-22T11:40:16;96106.53;;;26.82;80.10
58385;BME280;44185;47.844;8.966;2023-06-22T11:42:43;96100.16;;;26.76;82.07
58385;BME280;44185;47.844;8.966;2023-06-22T11:45:09;96106.28;;;27.25;81.79
58385;BME280;44185;47.844;8.966;2023-06-22T11:47:34;96104.69;;;27.41;77.06
58385;BME280;44185;47.844;8.966;2023-06-22T11:50:00;96101.13;;;27.40;75.77
58385;BME280;44185;47.844;8.966;2023-06-22T11:52:25;96104.50;;;26.89;78.43
58385;BME280;44185;47.844;8.966;2023-06-22T11:54:51;96104.03;;;26.92;79.33
58385;BME280;44185;47.844;8.966;2023-06-22T11:57:16;96102.06;;;26.75;80.01
58385;BME280;44185;47.844;8.966;2023-06-22T11:59:43;96104.75;;;26.87;80.72
58385;BME280;44185;47.844;8.966;2023-06-22T12:02:08;96110.19;;;26.87;78.76
58385;BME280;44185;47.844;8.966;2023-06-22T12:04:34;96108.91;;;27.07;80.83
58385;BME280;44185;47.844;8.966;2023-06-22T12:06:59;96108.19;;;27.24;75.82
58385;BME280;44185;47.844;8.966;2023-06-22T12:09:25;96117.63;;;27.51;76.42
58385;BME280;44185;47.844;8.966;2023-06-22T12:11:50;96109.50;;;27.68;76.00
58385;BME280;44185;47.844;8.966;2023-06-22T12:14:15;96107.19;;;27.60;75.02
58385;BME280;44185;47.844;8.966;2023-06-22T12:16:42;96114.03;;;27.62;73.74
58385;BME280;44185;47.844;8.966;2023-06-22T12:19:08;96099.84;;;27.60;72.90
58385;BME280;44185;47.844;8.966;2023-06-22T12:21:33;96094.75;;;27.64;73.98
58385;BME280;44185;47.844;8.966;2023-06-22T12:23:58;96090.22;;;27.70;74.41
58385;BME280;44185;47.844;8.966;2023-06-22T12:26:24;96088.66;;;27.57;74.46
58385;BME280;44185;47.844;8.966;2023-06-22T12:28:49;96087.97;;;27.67;73.39
58385;BME280;44185;47.844;8.966;2023-06-22T12:31:15;96095.16;;;27.73;74.69
58385;BME280;44185;47.844;8.966;2023-06-22T12:33:42;96085.13;;;27.73;72.85
58385;BME280;44185;47.844;8.966;2023-06-22T12:36:07;96088.72;;;27.79;73.10
58385;BME280;44185;47.844;8.966;2023-06-22T12:38:33;96075.03;;;27.74;73.42
58385;BME280;44185;47.844;8.966;2023-06-22T12:40:58;96077.16;;;27.84;73.25
58385;BME280;44185;47.844;8.966;2023-06-22T12:43:24;96075.56;;;27.88;71.87
58385;BME280;44185;47.844;8.966;2023-06-22T12:45:49;96084.56;;;27.89;72.13
58385;BME280;44185;47.844;8.966;2023-06-22T12:48:14;96083.31;;;27.96;72.33